Historique des mesures à Cassis (13260), France
Quotidien Résumé Fevrier 1, 2018 Unités:  Métrique/US    US   Métrique
« Précédent (Jour)
Suivant (Jour) »
Quotidien Hebdomadaire Mensuel Annuel Période au choix
  Maximum: Minimum: Moyenne:
Température: 32 °F /  TemperatureC °C 47.1 °F /  8.4 °C 49.5 °F /  9.7 °C
Point de rosée: 32 °F /  DewpointC °C 36.3 °F /  2.4 °C 42.8 °F /  6 °C
Humidité: Humidity % 66 % 74 %
Vitesse du vent: WindSpeedKMH mph /  0 km/h - 5.5 mph /  8.9 km/h
Rafales: WindSpeedGustKMH mph /  0 km/h - -
Vent:- - SW
Pression: 0 in /  PressurehPa hPa 29.6 in /  1000.6 hPa -
Précipitations: 12.7 in /  0.5 mm    
Historical Graphs
 
 
Mesures pour : Fevrier 1, 2018
Heure Temperature Point de rosée Pression Vent Vitesse du vent Rafales Humidité Pluie (par heure) Conditions
32 °F /  TemperatureC °C 32 °F /  DewpointC °C 0 in /  PressurehPa hPa Calm     Humidity % 0 in /  HourlyPrecipMM mm SoftwareType W/m2
00:12 51.4 °F /  10.8 °C 43.9 °F /  6.6 °C 29.9 in /  1012.4 hPa Calm     75 % 0 in /  0.0 mm open2300-1.11 W/m2
01:12 52.2 °F /  11.2 °C 44.8 °F /  7.1 °C 29.9 in /  1011.4 hPa Calm     76 % 0 in /  0.0 mm open2300-1.11 W/m2
02:12 52.7 °F /  11.5 °C 46.8 °F /  8.2 °C 29.8 in /  1010.4 hPa WSW 2.9 mph /  4.7 km/h 6.8 mph /  10.9 km/h 80 % 0 in /  0.0 mm open2300-1.11 W/m2
03:12 53.2 °F /  11.8 °C 47.8 °F /  8.8 °C 29.8 in /  1009.4 hPa Calm   4.0 mph /  6.4 km/h 82 % 0 in /  0.0 mm open2300-1.11 W/m2
04:12 52.9 °F /  11.6 °C 47.5 °F /  8.6 °C 29.8 in /  1008.7 hPa WSW 7.6 mph /  12.2 km/h 11.9 mph /  19.2 km/h 82 % 0 in /  0.0 mm open2300-1.11 W/m2
05:12 51.6 °F /  10.9 °C 45.7 °F /  7.6 °C 29.7 in /  1007.3 hPa West 8.7 mph /  14 km/h 8.7 mph /  14 km/h 80 % 0 in /  0.0 mm open2300-1.11 W/m2
06:12 50.5 °F /  10.3 °C 45 °F /  7.2 °C 29.7 in /  1007.3 hPa West 7.2 mph /  11.6 km/h 10.8 mph /  17.4 km/h 81 % 0 in /  0.0 mm open2300-1.11 W/m2
07:12 50.4 °F /  10.2 °C 44.4 °F /  6.9 °C 29.7 in /  1006.7 hPa WNW 8.7 mph /  14 km/h 9.3 mph /  15 km/h 80 % 0 in /  0.0 mm open2300-1.11 W/m2
08:12 50.5 °F /  10.3 °C 44.2 °F /  6.8 °C 29.7 in /  1006.0 hPa WNW 5.5 mph /  8.9 km/h 5.5 mph /  8.9 km/h 79 % 0 in /  0.0 mm open2300-1.11 W/m2
10:12 50.7 °F /  10.4 °C 45.1 °F /  7.3 °C 29.7 in /  1005.6 hPa Calm     81 % 0 in /  0.0 mm open2300-1.11 W/m2
11:12 50.2 °F /  10.1 °C 44.4 °F /  6.9 °C 29.7 in /  1005.6 hPa WNW 7.9 mph /  12.7 km/h 7.9 mph /  12.7 km/h 81 % 12.7 in /  0.5 mm open2300-1.11 W/m2
12:12 50.2 °F /  10.1 °C 44.4 °F /  6.9 °C 29.7 in /  1005.0 hPa North 1.8 mph /  2.9 km/h 7.6 mph /  12.2 km/h 81 % 0 in /  0.0 mm open2300-1.11 W/m2
13:12 50.9 °F /  10.5 °C 45 °F /  7.2 °C 29.6 in /  1003.9 hPa Calm     80 % 0 in /  0.0 mm open2300-1.11 W/m2
14:12 50.7 °F /  10.4 °C 44.4 °F /  6.9 °C 29.6 in /  1002.9 hPa NW 5.8 mph /  9.3 km/h 15.4 mph /  24.8 km/h 79 % 0 in /  0.0 mm open2300-1.11 W/m2
15:12 50.5 °F /  10.3 °C 43.9 °F /  6.6 °C 29.6 in /  1002.6 hPa WNW 7.9 mph /  12.7 km/h 9.0 mph /  14.5 km/h 78 % 0 in /  0.0 mm open2300-1.11 W/m2
16:12 49.5 °F /  9.7 °C 43.2 °F /  6.2 °C 29.6 in /  1001.9 hPa West 5.8 mph /  9.3 km/h 10.5 mph /  16.9 km/h 79 % 0 in /  0.0 mm open2300-1.11 W/m2
17:12 49.3 °F /  9.6 °C 42.6 °F /  5.9 °C 29.6 in /  1001.2 hPa WNW 4.7 mph /  7.6 km/h 8.7 mph /  14 km/h 78 % 0 in /  0.0 mm open2300-1.11 W/m2
18:12 48.6 °F /  9.2 °C 41.2 °F /  5.1 °C 29.6 in /  1001.6 hPa North 4.7 mph /  7.6 km/h 10.1 mph /  16.3 km/h 76 % 0 in /  0.0 mm open2300-1.11 W/m2
19:12 48.4 °F /  9.1 °C 40.6 °F /  4.8 °C 29.6 in /  1001.6 hPa West 12.6 mph /  20.3 km/h 13.0 mph /  20.9 km/h 75 % 0 in /  0.0 mm open2300-1.11 W/m2
20:12 48 °F /  8.9 °C 39.9 °F /  4.4 °C 29.6 in /  1001.2 hPa WNW 15.8 mph /  25.4 km/h 15.8 mph /  25.4 km/h 74 % 0 in /  0.0 mm open2300-1.11 W/m2
21:12 47.7 °F /  8.7 °C 39 °F /  3.9 °C 29.6 in /  1001.2 hPa North 10.1 mph /  16.3 km/h 24.5 mph /  39.4 km/h 72 % 0 in /  0.0 mm open2300-1.11 W/m2
22:12 47.3 °F /  8.5 °C 36.5 °F /  2.5 °C 29.6 in /  1000.9 hPa NNE 8.2 mph /  13.2 km/h 14.3 mph /  23 km/h 66 % 0 in /  0.0 mm open2300-1.11 W/m2
23:12 47.1 °F /  8.4 °C 36.3 °F /  2.4 °C 29.6 in /  1000.6 hPa West 6.8 mph /  10.9 km/h 6.8 mph /  10.9 km/h 66 % 0 in /  0.0 mm open2300-1.11 W/m2
Observations météo à CASSIS
WU-History script by Weather Underground - 1 mb